createdAt,value
2019-01-12T00:00:43.838Z,100195.42
2019-01-12T00:03:09.749Z,100195.39
2019-01-12T00:05:35.669Z,100197.63
2019-01-12T00:08:01.692Z,100199.32
2019-01-12T00:10:27.584Z,100198.77
2019-01-12T00:12:53.517Z,100195.72
2019-01-12T00:15:19.361Z,100198.22
2019-01-12T00:17:45.264Z,100198.22
2019-01-12T00:20:11.141Z,100193.25
2019-01-12T00:22:37.029Z,100192.05
2019-01-12T00:25:05.401Z,100197.25
2019-01-12T00:27:31.275Z,100189.80
2019-01-12T00:29:57.188Z,100190.30
2019-01-12T00:32:23.295Z,100182.46
2019-01-12T00:34:51.176Z,100181.36
2019-01-12T00:37:17.060Z,100176.52
2019-01-12T00:39:43.054Z,100169.19
2019-01-12T00:42:08.936Z,100170.13
2019-01-12T00:44:34.824Z,100169.63
2019-01-12T00:47:00.698Z,100165.28
2019-01-12T00:49:26.600Z,100162.65
2019-01-12T00:51:52.485Z,100150.50
2019-01-12T00:54:18.476Z,100157.98
2019-01-12T00:56:44.371Z,100157.31
2019-01-12T00:59:10.252Z,100158.98
2019-01-12T01:01:36.127Z,100165.08
2019-01-12T01:04:02.081Z,100173.28
2019-01-12T01:06:27.940Z,100168.67
2019-01-12T01:08:53.870Z,100166.08
2019-01-12T01:11:19.826Z,100165.48
2019-01-12T01:13:45.697Z,100174.67
2019-01-12T01:16:11.580Z,100172.41
2019-01-12T01:18:37.439Z,100169.61
2019-01-12T01:21:03.439Z,100171.50
2019-01-12T01:23:29.322Z,100176.11
2019-01-12T01:25:55.298Z,100171.91
2019-01-12T01:28:21.291Z,100174.29
2019-01-12T01:30:47.653Z,100174.29
2019-01-12T01:33:14.130Z,100177.45
2019-01-12T01:35:40.017Z,100178.30
2019-01-12T01:38:05.943Z,100177.39
2019-01-12T01:40:31.836Z,100175.73
2019-01-12T01:42:57.829Z,100167.57
2019-01-12T01:45:23.711Z,100180.88
2019-01-12T01:47:49.696Z,100177.89
2019-01-12T01:50:15.682Z,100170.55
2019-01-12T01:52:41.575Z,100161.45
2019-01-12T01:55:07.674Z,100160.33
2019-01-12T01:57:33.545Z,100169.15
2019-01-12T01:59:59.516Z,100171.23
2019-01-12T02:02:25.411Z,100169.04
2019-01-12T02:04:51.704Z,100170.17
2019-01-12T02:07:17.591Z,100176.77
2019-01-12T02:09:43.477Z,100170.67
2019-01-12T02:12:09.344Z,100175.09
2019-01-12T02:14:35.213Z,100168.25
2019-01-12T02:17:01.077Z,100170.80
2019-01-12T02:19:26.951Z,100165.55
2019-01-12T02:21:52.834Z,100166.02
2019-01-12T02:24:18.706Z,100170.28
2019-01-12T02:26:44.676Z,100165.16
2019-01-12T02:29:10.545Z,100158.64
2019-01-12T02:31:36.447Z,100152.34
2019-01-12T02:34:02.642Z,100157.11
2019-01-12T02:36:28.516Z,100154.48
2019-01-12T02:38:54.383Z,100150.03
2019-01-12T02:41:20.272Z,100147.42
2019-01-12T02:43:46.313Z,100138.70
2019-01-12T02:46:12.309Z,100148.64
2019-01-12T02:48:38.189Z,100141.72
2019-01-12T02:51:04.114Z,100149.19
2019-01-12T02:53:30.016Z,100139.23
2019-01-12T02:55:55.899Z,100139.26
2019-01-12T02:58:21.855Z,100144.34
2019-01-12T03:00:47.744Z,100136.77
2019-01-12T03:03:13.597Z,100136.72
2019-01-12T03:05:39.491Z,100141.75
2019-01-12T03:08:05.388Z,100132.75
2019-01-12T03:10:31.301Z,100132.25
2019-01-12T03:12:57.171Z,100136.78
2019-01-12T03:15:23.130Z,100130.27
2019-01-12T03:17:49.220Z,100129.52
2019-01-12T03:20:16.384Z,100126.37
2019-01-12T03:22:42.284Z,100127.33
2019-01-12T03:25:08.152Z,100123.08
2019-01-12T03:27:34.009Z,100117.58
2019-01-12T03:30:00.034Z,100107.12
2019-01-12T03:32:25.969Z,100106.11
2019-01-12T03:34:52.310Z,100113.69
2019-01-12T03:37:18.191Z,100111.84
2019-01-12T03:39:44.062Z,100103.19
2019-01-12T03:42:10.051Z,100102.34
2019-01-12T03:44:35.934Z,100114.86
2019-01-12T03:47:01.821Z,100096.82
2019-01-12T03:49:27.752Z,100098.43
2019-01-12T03:51:53.606Z,100098.09
2019-01-12T03:54:19.495Z,100095.44
2019-01-12T03:56:45.396Z,100096.64
2019-01-12T03:59:11.248Z,100089.19
2019-01-12T04:01:37.138Z,100091.44
2019-01-12T04:04:02.991Z,100083.48
2019-01-12T04:06:28.886Z,100075.30
2019-01-12T04:08:54.764Z,100078.70
2019-01-12T04:11:20.639Z,100080.87
2019-01-12T04:13:46.577Z,100075.59
2019-01-12T04:16:12.601Z,100067.47
2019-01-12T04:18:38.511Z,100069.40
2019-01-12T04:21:04.363Z,100065.79
2019-01-12T04:23:30.263Z,100063.70
2019-01-12T04:25:56.238Z,100063.13
2019-01-12T04:28:22.319Z,100069.56
2019-01-12T04:30:48.232Z,100072.65
2019-01-12T04:33:14.134Z,100069.06
2019-01-12T04:35:40.691Z,100065.66
2019-01-12T04:38:06.571Z,100071.37
2019-01-12T04:40:32.443Z,100057.98
2019-01-12T04:42:58.331Z,100071.89
2019-01-12T04:45:24.199Z,100074.27
2019-01-12T04:47:50.080Z,100069.18
2019-01-12T04:50:15.968Z,100063.97
2019-01-12T04:52:41.851Z,100073.12
2019-01-12T04:55:07.734Z,100070.84
2019-01-12T04:57:33.595Z,100073.52
2019-01-12T04:59:59.583Z,100072.23
2019-01-12T05:02:25.549Z,100067.09
2019-01-12T05:04:51.375Z,100067.09
2019-01-12T05:07:17.236Z,100071.01
2019-01-12T05:09:43.119Z,100054.56
2019-01-12T05:12:09.021Z,100054.56
2019-01-12T05:14:35.128Z,100064.52
2019-01-12T05:17:01.066Z,100067.87
2019-01-12T05:19:27.017Z,100061.44
2019-01-12T05:21:52.939Z,100053.16
2019-01-12T05:24:18.780Z,100060.89
2019-01-12T05:26:44.635Z,100058.67
2019-01-12T05:29:10.507Z,100056.39
2019-01-12T05:31:36.395Z,100057.87
2019-01-12T05:34:02.327Z,100053.08
2019-01-12T05:36:28.788Z,100071.55
2019-01-12T05:38:54.884Z,100072.65
2019-01-12T05:41:20.762Z,100077.09
2019-01-12T05:43:46.622Z,100070.24
2019-01-12T05:46:12.531Z,100068.36
2019-01-12T05:48:38.430Z,100071.09
2019-01-12T05:51:04.310Z,100075.06
2019-01-12T05:53:30.170Z,100069.49
2019-01-12T05:55:58.079Z,100066.48
2019-01-12T05:58:23.926Z,100073.30
2019-01-12T06:00:49.804Z,100054.86
2019-01-12T06:03:15.651Z,100080.13
2019-01-12T06:05:41.518Z,100072.88
2019-01-12T06:08:07.427Z,100077.12
2019-01-12T06:10:33.292Z,100074.87
2019-01-12T06:12:59.154Z,100071.06
2019-01-12T06:15:25.085Z,100081.88
2019-01-12T06:17:51.078Z,100069.83
2019-01-12T06:20:16.977Z,100078.09
2019-01-12T06:22:42.938Z,100076.07
2019-01-12T06:25:08.819Z,100075.66
2019-01-12T06:27:34.744Z,100069.93
2019-01-12T06:30:00.612Z,100082.31
2019-01-12T06:32:26.534Z,100082.35
2019-01-12T06:34:52.470Z,100081.48
2019-01-12T06:37:19.022Z,100079.02
2019-01-12T06:39:44.934Z,100087.75
2019-01-12T06:42:10.827Z,100076.97
2019-01-12T06:44:36.701Z,100077.89
2019-01-12T06:47:02.597Z,100078.28
2019-01-12T06:49:28.475Z,100070.55
2019-01-12T06:51:54.330Z,100074.55
2019-01-12T06:54:20.213Z,100068.82
2019-01-12T06:56:46.079Z,100072.78
2019-01-12T06:59:12.259Z,100061.14
2019-01-12T07:01:38.115Z,100057.30
2019-01-12T07:04:04.016Z,100069.56
2019-01-12T07:06:29.985Z,100069.00
2019-01-12T07:08:55.851Z,100063.47
2019-01-12T07:11:21.732Z,100060.52
2019-01-12T07:13:47.594Z,100063.06
2019-01-12T07:16:13.506Z,100059.97
2019-01-12T07:18:39.446Z,100062.17
2019-01-12T07:21:05.360Z,100071.87
2019-01-12T07:23:31.325Z,100078.46
2019-01-12T07:25:57.180Z,100075.78
2019-01-12T07:28:23.069Z,100075.39
2019-01-12T07:30:48.975Z,100076.84
2019-01-12T07:33:14.841Z,100078.59
2019-01-12T07:35:40.742Z,100077.36
2019-01-12T07:38:07.424Z,100087.39
2019-01-12T07:40:33.350Z,100088.72
2019-01-12T07:42:59.246Z,100083.50
2019-01-12T07:45:25.219Z,100086.98
2019-01-12T07:47:51.228Z,100098.71
2019-01-12T07:50:17.192Z,100103.55
2019-01-12T07:52:43.094Z,100095.66
2019-01-12T07:55:09.099Z,100090.54
2019-01-12T07:57:34.969Z,100099.27
2019-01-12T08:00:02.237Z,100101.44
2019-01-12T08:02:28.226Z,100104.55
2019-01-12T08:04:54.187Z,100101.95
2019-01-12T08:07:20.037Z,100107.20
2019-01-12T08:09:45.930Z,100114.66
2019-01-12T08:12:11.790Z,100108.58
2019-01-12T08:14:37.649Z,100105.59
2019-01-12T08:17:03.541Z,100105.20
2019-01-12T08:19:29.506Z,100103.48
2019-01-12T08:21:55.511Z,100110.50
2019-01-12T08:24:21.385Z,100109.62
2019-01-12T08:26:47.257Z,100109.69
2019-01-12T08:29:13.134Z,100112.78
2019-01-12T08:31:39.033Z,100101.05
2019-01-12T08:34:04.930Z,100105.83
2019-01-12T08:36:30.835Z,100109.75
2019-01-12T08:38:58.220Z,100110.19
2019-01-12T08:41:24.086Z,100105.37
2019-01-12T08:43:49.962Z,100092.75
2019-01-12T08:46:15.859Z,100099.30
2019-01-12T08:48:41.729Z,100103.64
2019-01-12T08:51:07.601Z,100104.50
2019-01-12T08:53:33.512Z,100097.09
2019-01-12T08:55:59.381Z,100105.81
2019-01-12T08:58:25.347Z,100104.50
2019-01-12T09:00:51.228Z,100101.47
2019-01-12T09:03:17.097Z,100099.30
2019-01-12T09:05:42.972Z,100101.47
2019-01-12T09:08:08.834Z,100097.97
2019-01-12T09:10:34.706Z,100106.69
2019-01-12T09:13:00.578Z,100101.48
2019-01-12T09:15:26.470Z,100094.50
2019-01-12T09:17:52.431Z,100092.75
2019-01-12T09:20:18.301Z,100094.94
2019-01-12T09:22:44.193Z,100095.36
2019-01-12T09:25:10.975Z,100095.34
2019-01-12T09:27:36.948Z,100092.30
2019-01-12T09:30:06.638Z,100085.77
2019-01-12T09:32:32.513Z,100086.19
2019-01-12T09:34:58.702Z,100084.02
2019-01-12T09:37:24.645Z,100091.39
2019-01-12T09:39:51.635Z,100086.59
2019-01-12T09:42:17.509Z,100090.42
2019-01-12T09:44:43.387Z,100090.42
2019-01-12T09:47:09.248Z,100093.48
2019-01-12T09:49:35.140Z,100089.34
2019-01-12T09:52:01.012Z,100091.50
2019-01-12T09:54:26.877Z,100098.59
2019-01-12T09:56:52.739Z,100087.62
2019-01-12T09:59:18.616Z,100092.81
2019-01-12T10:01:44.563Z,100091.91
2019-01-12T10:04:10.457Z,100094.13
2019-01-12T10:06:36.458Z,100089.73
2019-01-12T10:09:03.946Z,100088.88
2019-01-12T10:11:29.826Z,100084.58
2019-01-12T10:13:55.926Z,100079.20
2019-01-12T10:16:21.807Z,100079.23
2019-01-12T10:18:47.713Z,100076.12
2019-01-12T10:21:15.121Z,100073.14
2019-01-12T10:23:40.986Z,100069.22
2019-01-12T10:26:06.867Z,100069.04
2019-01-12T10:28:32.761Z,100059.42
2019-01-12T10:30:58.631Z,100063.14
2019-01-12T10:33:24.735Z,100059.22
2019-01-12T10:35:50.594Z,100058.84
2019-01-12T10:38:17.987Z,100055.30
2019-01-12T10:40:44.353Z,100054.88
2019-01-12T10:43:10.237Z,100053.70
2019-01-12T10:45:36.233Z,100050.54
2019-01-12T10:48:02.467Z,100051.86
2019-01-12T10:50:30.219Z,100052.62
2019-01-12T10:52:56.094Z,100042.30
2019-01-12T10:55:21.985Z,100039.59
2019-01-12T10:57:47.983Z,100034.61
2019-01-12T11:00:22.935Z,100031.05
2019-01-12T11:02:48.832Z,100023.70
2019-01-12T11:05:14.815Z,100016.23
2019-01-12T11:07:40.729Z,100014.05
2019-01-12T11:10:09.501Z,100013.27
2019-01-12T11:12:35.503Z,100015.00
2019-01-12T11:15:01.464Z,100015.00
2019-01-12T11:17:27.332Z,100011.43
2019-01-12T11:19:54.002Z,99997.65
2019-01-12T11:22:21.047Z,100001.16
2019-01-12T11:24:46.946Z,99999.13
2019-01-12T11:27:12.939Z,99997.83
2019-01-12T11:29:38.801Z,99995.69
2019-01-12T11:32:04.987Z,99985.08
2019-01-12T11:34:33.078Z,99987.17
2019-01-12T11:36:58.928Z,99980.05
2019-01-12T11:39:24.853Z,99971.98
2019-01-12T11:41:52.256Z,99969.03
2019-01-12T11:44:18.271Z,99963.97
2019-01-12T11:46:44.131Z,99963.97
2019-01-12T11:49:09.994Z,99960.11
2019-01-12T11:51:35.895Z,99969.08
2019-01-12T11:54:01.817Z,99969.60
2019-01-12T11:56:27.779Z,99949.90
2019-01-12T11:58:53.663Z,99944.03
2019-01-12T12:01:19.518Z,99947.95
2019-01-12T12:03:45.371Z,99945.19
2019-01-12T12:06:11.246Z,99939.86
2019-01-12T12:08:37.102Z,99937.58
2019-01-12T12:11:03.172Z,99929.92
2019-01-12T12:13:29.050Z,99929.92
2019-01-12T12:15:54.921Z,99926.37
2019-01-12T12:18:20.809Z,99924.59
2019-01-12T12:20:46.666Z,99923.85
2019-01-12T12:23:12.568Z,99930.42
2019-01-12T12:25:38.429Z,99918.20
2019-01-12T12:28:04.301Z,99919.53
2019-01-12T12:30:30.180Z,99918.34
2019-01-12T12:32:56.039Z,99925.11
2019-01-12T12:35:21.924Z,99925.02
2019-01-12T12:37:47.784Z,99929.59
2019-01-12T12:40:15.999Z,99928.27
2019-01-12T12:42:43.212Z,99926.75
2019-01-12T12:45:12.715Z,99921.89
2019-01-12T12:47:38.565Z,99917.67
2019-01-12T12:50:10.203Z,99913.72
2019-01-12T12:52:36.081Z,99921.73
2019-01-12T12:55:02.278Z,99917.22
2019-01-12T12:57:32.838Z,99913.66
2019-01-12T12:59:56.035Z,99899.09
2019-01-12T13:02:21.878Z,99888.37
2019-01-12T13:04:47.881Z,99878.47
2019-01-12T13:07:13.772Z,99878.93
2019-01-12T13:09:39.665Z,99872.99
2019-01-12T13:12:06.051Z,99870.78
2019-01-12T13:14:32.017Z,99866.13
2019-01-12T13:16:57.966Z,99872.83
2019-01-12T13:19:25.026Z,99870.14
2019-01-12T13:21:50.954Z,99869.34
2019-01-12T13:24:16.838Z,99864.33
2019-01-12T13:26:42.706Z,99864.70
2019-01-12T13:29:08.587Z,99858.66
2019-01-12T13:31:34.431Z,99856.07
2019-01-12T13:34:02.240Z,99862.92
2019-01-12T13:36:28.116Z,99861.63
2019-01-12T13:38:54.009Z,99856.08
2019-01-12T13:41:19.897Z,99848.84
2019-01-12T13:43:46.832Z,99846.00
2019-01-12T13:46:12.810Z,99850.41
2019-01-12T13:48:38.700Z,99844.05
2019-01-12T13:51:04.557Z,99842.98
2019-01-12T13:53:30.426Z,99850.68
2019-01-12T13:55:56.296Z,99852.59
2019-01-12T13:58:22.185Z,99842.75
2019-01-12T14:00:48.077Z,99852.69
2019-01-12T14:03:14.065Z,99851.56
2019-01-12T14:05:39.930Z,99845.81
2019-01-12T14:08:09.155Z,99844.81
2019-01-12T14:10:35.236Z,99851.22
2019-01-12T14:13:01.113Z,99850.57
2019-01-12T14:15:27.086Z,99854.40
2019-01-12T14:17:52.961Z,99850.38
2019-01-12T14:20:27.950Z,99841.28
2019-01-12T14:22:53.898Z,99838.77
2019-01-12T14:25:19.770Z,99838.97
2019-01-12T14:27:45.748Z,99836.28
2019-01-12T14:30:15.658Z,99842.50
2019-01-12T14:32:41.677Z,99839.18
2019-01-12T14:35:09.565Z,99824.56
2019-01-12T14:37:35.542Z,99821.13
2019-01-12T14:40:01.396Z,99827.59
2019-01-12T14:42:27.281Z,99824.24
2019-01-12T14:44:53.813Z,99824.23
2019-01-12T14:47:20.500Z,99828.28
2019-01-12T14:49:46.368Z,99827.30
2019-01-12T14:52:12.242Z,99823.38
2019-01-12T14:54:38.123Z,99814.90
2019-01-12T14:57:04.104Z,99814.81
2019-01-12T14:59:30.004Z,99811.42
2019-01-12T15:01:55.963Z,99807.20
2019-01-12T15:04:21.838Z,99820.14
2019-01-12T15:06:47.700Z,99822.67
2019-01-12T15:09:13.565Z,99831.13
2019-01-12T15:11:39.542Z,99838.21
2019-01-12T15:14:05.422Z,99833.59
2019-01-12T15:16:31.403Z,99827.93
2019-01-12T15:18:57.291Z,99827.07
2019-01-12T15:21:23.269Z,99815.30
2019-01-12T15:23:49.193Z,99806.66
2019-01-12T15:26:15.063Z,99817.10
2019-01-12T15:28:40.931Z,99815.63
2019-01-12T15:31:06.847Z,99815.03
2019-01-12T15:33:32.689Z,99814.94
2019-01-12T15:35:58.781Z,99823.06
2019-01-12T15:38:24.690Z,99825.66
2019-01-12T15:40:50.548Z,99825.66
2019-01-12T15:43:16.455Z,99819.99
2019-01-12T15:45:43.243Z,99812.80
2019-01-12T15:48:09.100Z,99807.67
2019-01-12T15:50:34.968Z,99813.17
2019-01-12T15:53:01.611Z,99810.22
2019-01-12T15:55:27.670Z,99807.44
2019-01-12T15:57:53.542Z,99809.12
2019-01-12T16:00:21.472Z,99822.48
2019-01-12T16:02:47.446Z,99822.90
2019-01-12T16:05:13.308Z,99822.90
2019-01-12T16:07:39.155Z,99826.88
2019-01-12T16:10:08.240Z,99819.86
2019-01-12T16:12:36.574Z,99799.27
2019-01-12T16:15:03.844Z,99799.27
2019-01-12T16:17:29.729Z,99791.98
2019-01-12T16:19:55.603Z,99791.98
2019-01-12T16:22:21.523Z,99798.60
2019-01-12T16:24:47.362Z,99798.66
2019-01-12T16:27:13.249Z,99808.30
2019-01-12T16:29:39.186Z,99804.50
2019-01-12T16:32:05.047Z,99810.20
2019-01-12T16:34:31.232Z,99818.50
2019-01-12T16:36:57.252Z,99821.59
2019-01-12T16:39:23.126Z,99814.69
2019-01-12T16:41:49.096Z,99808.16
2019-01-12T16:44:14.999Z,99801.21
2019-01-12T16:46:41.350Z,99793.81
2019-01-12T16:49:07.253Z,99793.41
2019-01-12T16:51:33.105Z,99802.16
2019-01-12T16:53:59.965Z,99825.77
2019-01-12T16:56:25.811Z,99826.18
2019-01-12T16:58:51.684Z,99830.19
2019-01-12T17:01:17.553Z,99829.29
2019-01-12T17:03:43.401Z,99844.16
2019-01-12T17:06:09.414Z,99836.31
2019-01-12T17:08:35.379Z,99848.60
2019-01-12T17:11:01.415Z,99863.37
2019-01-12T17:13:27.281Z,99857.78
2019-01-12T17:15:53.281Z,99858.25
2019-01-12T17:18:19.138Z,99865.66
2019-01-12T17:20:45.017Z,99867.39
2019-01-12T17:23:10.898Z,99862.64
2019-01-12T17:25:36.805Z,99859.98
2019-01-12T17:28:02.750Z,99859.97
2019-01-12T17:30:28.573Z,99851.30
2019-01-12T17:32:54.458Z,99875.69
2019-01-12T17:35:20.438Z,99846.09
2019-01-12T17:37:46.503Z,99848.27
2019-01-12T17:40:14.190Z,99841.70
2019-01-12T17:42:40.060Z,99836.05
2019-01-12T17:45:09.483Z,99829.50
2019-01-12T17:47:37.195Z,99802.09
2019-01-12T17:50:06.744Z,99803.44
2019-01-12T17:52:32.619Z,99808.22
2019-01-12T17:54:58.482Z,99799.93
2019-01-12T17:57:24.351Z,99804.30
2019-01-12T17:59:50.210Z,99826.51
2019-01-12T18:02:16.081Z,99818.23
2019-01-12T18:04:41.988Z,99815.63
2019-01-12T18:07:07.853Z,99823.46
2019-01-12T18:09:33.721Z,99816.06
2019-01-12T18:11:59.610Z,99810.86
2019-01-12T18:14:25.548Z,99810.42
2019-01-12T18:16:51.401Z,99803.02
2019-01-12T18:19:17.272Z,99800.83
2019-01-12T18:21:43.203Z,99813.03
2019-01-12T18:24:09.070Z,99811.70
2019-01-12T18:26:34.960Z,99803.02
2019-01-12T18:29:01.327Z,99790.83
2019-01-12T18:31:27.198Z,99786.03
2019-01-12T18:33:53.058Z,99785.60
2019-01-12T18:36:18.915Z,99772.11
2019-01-12T18:38:44.789Z,99771.67
2019-01-12T18:41:12.350Z,99764.28
2019-01-12T18:43:38.665Z,99762.95
2019-01-12T18:46:04.560Z,99757.32
2019-01-12T18:48:30.705Z,99768.64
2019-01-12T18:50:56.575Z,99760.38
2019-01-12T18:53:22.458Z,99747.75
2019-01-12T18:55:48.307Z,99752.97
2019-01-12T18:58:14.170Z,99754.72
2019-01-12T19:00:40.037Z,99759.94
2019-01-12T19:03:05.908Z,99756.45
2019-01-12T19:05:31.768Z,99752.09
2019-01-12T19:07:57.643Z,99752.95
2019-01-12T19:10:23.517Z,99749.91
2019-01-12T19:12:49.394Z,99761.22
2019-01-12T19:15:20.943Z,99757.72
2019-01-12T19:17:46.838Z,99753.35
2019-01-12T19:20:12.719Z,99743.36
2019-01-12T19:22:38.715Z,99728.14
2019-01-12T19:25:07.494Z,99732.08
2019-01-12T19:27:33.345Z,99731.20
2019-01-12T19:29:59.310Z,99732.50
2019-01-12T19:32:25.186Z,99738.60
2019-01-12T19:34:51.056Z,99722.92
2019-01-12T19:37:16.967Z,99708.16
2019-01-12T19:39:42.825Z,99703.35
2019-01-12T19:42:08.690Z,99699.85
2019-01-12T19:44:34.546Z,99707.70
2019-01-12T19:47:00.772Z,99719.05
2019-01-12T19:49:27.014Z,99707.30
2019-01-12T19:51:52.877Z,99705.97
2019-01-12T19:54:18.736Z,99709.02
2019-01-12T19:56:44.760Z,99699.41
2019-01-12T19:59:13.786Z,99692.87
2019-01-12T20:01:38.447Z,99695.94
2019-01-12T20:04:04.343Z,99698.14
2019-01-12T20:06:30.314Z,99699.89
2019-01-12T20:08:56.215Z,99687.72
2019-01-12T20:11:22.078Z,99687.27
2019-01-12T20:13:47.957Z,99688.52
2019-01-12T20:16:13.812Z,99690.73
2019-01-12T20:18:39.657Z,99687.71
2019-01-12T20:21:05.519Z,99684.20
2019-01-12T20:23:31.402Z,99689.02
2019-01-12T20:25:57.304Z,99688.13
2019-01-12T20:28:23.222Z,99688.13
2019-01-12T20:31:18.612Z,99690.27
2019-01-12T20:33:48.290Z,99703.81
2019-01-12T20:36:35.088Z,99696.40
2019-01-12T20:39:10.635Z,99682.92
2019-01-12T20:41:52.380Z,99675.55
2019-01-12T20:44:30.656Z,99675.96
2019-01-12T20:47:03.165Z,99672.05
2019-01-12T20:49:32.921Z,99662.06
2019-01-12T20:52:21.331Z,99672.91
2019-01-12T20:55:13.704Z,99665.55
2019-01-12T20:58:01.636Z,99655.53
2019-01-12T21:00:55.407Z,99659.88
2019-01-12T21:03:34.127Z,99656.83
2019-01-12T21:06:21.958Z,99646.84
2019-01-12T21:08:54.329Z,99648.16
2019-01-12T21:11:32.777Z,99636.41
2019-01-12T21:14:08.305Z,99625.11
2019-01-12T21:16:35.165Z,99648.59
2019-01-12T21:19:01.044Z,99643.36
2019-01-12T21:21:26.910Z,99648.14
2019-01-12T21:23:52.774Z,99654.23
2019-01-12T21:26:18.638Z,99662.91
2019-01-12T21:28:44.535Z,99651.19
2019-01-12T21:31:10.580Z,99646.40
2019-01-12T21:33:36.441Z,99647.69
2019-01-12T21:36:02.330Z,99641.63
2019-01-12T21:38:28.198Z,99651.61
2019-01-12T21:40:54.069Z,99639.89
2019-01-12T21:43:19.937Z,99644.20
2019-01-12T21:45:45.794Z,99646.80
2019-01-12T21:48:11.646Z,99645.50
2019-01-12T21:50:37.577Z,99638.11
2019-01-12T21:53:03.635Z,99645.02
2019-01-12T21:55:31.012Z,99647.59
2019-01-12T21:57:56.981Z,99642.41
2019-01-12T22:00:23.698Z,99631.61
2019-01-12T22:02:49.569Z,99644.22
2019-01-12T22:05:15.476Z,99650.73
2019-01-12T22:07:41.368Z,99636.41
2019-01-12T22:10:11.043Z,99636.86
2019-01-12T22:12:36.947Z,99627.30
2019-01-12T22:15:06.410Z,99628.58
2019-01-12T22:17:32.324Z,99627.69
2019-01-12T22:19:58.203Z,99634.25
2019-01-12T22:22:24.097Z,99634.23
2019-01-12T22:24:49.938Z,99630.32
2019-01-12T22:27:15.803Z,99618.59
2019-01-12T22:29:41.668Z,99626.39
2019-01-12T22:32:07.559Z,99634.23
2019-01-12T22:34:33.426Z,99614.24
2019-01-12T22:36:59.315Z,99612.50
2019-01-12T22:39:25.180Z,99605.97
2019-01-12T22:41:51.066Z,99612.95
2019-01-12T22:44:16.963Z,99605.98
2019-01-12T22:46:42.952Z,99582.94
2019-01-12T22:49:08.866Z,99573.38
2019-01-12T22:51:34.747Z,99561.64
2019-01-12T22:54:01.460Z,99563.39
2019-01-12T22:56:27.346Z,99551.64
2019-01-12T22:58:53.240Z,99565.56
2019-01-12T23:01:22.928Z,99544.71
2019-01-12T23:03:49.346Z,99559.91
2019-01-12T23:06:15.209Z,99549.03
2019-01-12T23:08:41.063Z,99534.26
2019-01-12T23:11:07.069Z,99541.66
2019-01-12T23:13:32.960Z,99539.90
2019-01-12T23:15:58.832Z,99536.44
2019-01-12T23:18:24.715Z,99520.39
2019-01-12T23:20:50.608Z,99519.07
2019-01-12T23:23:16.488Z,99519.92
2019-01-12T23:25:42.362Z,99531.23
2019-01-12T23:28:08.231Z,99525.16
2019-01-12T23:30:34.219Z,99518.20
2019-01-12T23:33:00.125Z,99524.72
2019-01-12T23:35:25.992Z,99520.80
2019-01-12T23:37:51.874Z,99522.99
2019-01-12T23:40:17.738Z,99513.43
2019-01-12T23:42:43.669Z,99512.55
2019-01-12T23:45:11.331Z,99522.56
2019-01-12T23:47:37.186Z,99536.45
2019-01-12T23:50:08.752Z,99543.75
2019-01-12T23:52:34.660Z,99535.95
2019-01-12T23:55:01.804Z,99543.81
2019-01-12T23:57:27.661Z,99547.75
2019-01-12T23:59:53.523Z,99549.91
